Time;durP1;ratioP1;P1;durP2;ratioP2;P2;SDS_P1;SDS_P2;PMS_P1;PMS_P2;Temp;Humidity;BMP_temperature;BMP_pressure;BME280_temperature;BME280_humidity;BME280_pressure;Samples;Min_cycle;Max_cycle;Signal;HPM_P1;HPM_P2
2021/10/23 00:01:31;;;;;;;;;;;;;;;4.78;100.00;98451.88;2552465;56;20012;-73
2021/10/23 00:03:58;;;;;;;;;;;;;;;4.75;100.00;98446.87;2552417;56;20441;-73
2021/10/23 00:06:26;;;;;;;;;;;;;;;4.70;100.00;98449.91;2550916;56;19982;-73
2021/10/23 00:08:54;;;;;;;;;;;;;;;4.68;100.00;98451.88;2549905;56;20001;-72
2021/10/23 00:11:21;;;;;;;;;;;;;;;4.70;100.00;98462.28;2552351;56;20033;-72
2021/10/23 00:13:49;;;;;;;;;;;;;;;4.65;100.00;98456.56;2551558;56;19999;-72
2021/10/23 00:16:16;;;;;;;;;;;;;;;4.64;100.00;98465.47;2552160;56;19987;-73
2021/10/23 00:18:45;;;;;;;;;;;;;;;4.67;100.00;98462.56;2551684;56;19986;-72
2021/10/23 00:21:12;;;;;;;;;;;;;;;4.72;100.00;98465.66;2551186;56;20046;-73
2021/10/23 00:23:40;;;;;;;;;;;;;;;4.64;100.00;98468.13;2552380;56;20410;-73
2021/10/23 00:26:08;;;;;;;;;;;;;;;4.69;100.00;98476.47;2550064;56;19991;-73
2021/10/23 00:28:35;;;;;;;;;;;;;;;4.70;100.00;98480.78;2551181;56;20001;-73
2021/10/23 00:31:04;;;;;;;;;;;;;;;4.71;100.00;98479.81;2550679;56;19990;-72
2021/10/23 00:33:33;;;;;;;;;;;;;;;4.65;100.00;98483.00;2551474;56;19999;-73
2021/10/23 00:36:01;;;;;;;;;;;;;;;4.66;100.00;98495.22;2550135;56;20016;-73
2021/10/23 00:38:29;;;;;;;;;;;;;;;4.66;100.00;98490.78;2552201;56;20305;-73
2021/10/23 00:40:56;;;;;;;;;;;;;;;4.66;100.00;98495.22;2551389;56;20005;-73
2021/10/23 00:43:24;;;;;;;;;;;;;;;4.69;100.00;98497.59;2552333;56;20047;-73
2021/10/23 00:45:51;;;;;;;;;;;;;;;4.69;100.00;98503.72;2551047;56;20016;-73
2021/10/23 00:48:19;;;;;;;;;;;;;;;4.67;100.00;98503.03;2550945;56;20524;-72
2021/10/23 00:50:47;;;;;;;;;;;;;;;4.64;100.00;98502.44;2551342;56;20412;-72
2021/10/23 00:53:16;;;;;;;;;;;;;;;4.55;100.00;98499.63;2549944;56;20382;-72
2021/10/23 00:55:44;;;;;;;;;;;;;;;4.58;100.00;98507.28;2550314;56;20004;-73
2021/10/23 00:58:11;;;;;;;;;;;;;;;4.60;100.00;98513.25;2551945;56;19987;-73
2021/10/23 01:00:38;;;;;;;;;;;;;;;4.64;100.00;98518.31;2550866;56;20395;-73
2021/10/23 01:03:06;;;;;;;;;;;;;;;4.65;100.00;98523.44;2550793;56;20006;-72
2021/10/23 01:05:33;;;;;;;;;;;;;;;4.70;100.00;98520.41;2552144;56;19993;-73
2021/10/23 01:08:01;;;;;;;;;;;;;;;4.67;100.00;98523.31;2551092;56;20003;-72
2021/10/23 01:10:30;;;;;;;;;;;;;;;4.70;100.00;98533.59;2550301;56;19994;-72
2021/10/23 01:12:58;;;;;;;;;;;;;;;4.70;100.00;98525.69;2551325;56;19990;-72
2021/10/23 01:15:26;;;;;;;;;;;;;;;4.69;100.00;98538.06;2549927;56;20002;-72
2021/10/23 01:17:55;;;;;;;;;;;;;;;4.67;100.00;98534.72;2550620;56;19998;-72
2021/10/23 01:20:24;;;;;;;;;;;;;;;4.73;100.00;98538.66;2550124;56;19997;-72
2021/10/23 01:22:52;;;;;;;;;;;;;;;4.76;100.00;98540.16;2551921;56;20012;-72
2021/10/23 01:25:21;;;;;;;;;;;;;;;4.76;100.00;98545.44;2550463;56;19999;-73
2021/10/23 01:27:51;;;;;;;;;;;;;;;4.81;100.00;98545.91;2551698;56;20472;-72
2021/10/23 01:30:18;;;;;;;;;;;;;;;4.83;100.00;98547.47;2549732;56;20438;-72
2021/10/23 01:32:46;;;;;;;;;;;;;;;4.83;100.00;98547.47;2550768;56;19998;-73
2021/10/23 01:35:14;;;;;;;;;;;;;;;4.82;100.00;98543.16;2551205;56;19987;-72
2021/10/23 01:37:43;;;;;;;;;;;;;;;4.80;100.00;98552.16;2549278;56;20397;-72
2021/10/23 01:40:12;;;;;;;;;;;;;;;4.81;100.00;98562.63;2550987;56;20390;-73
2021/10/23 01:42:40;;;;;;;;;;;;;;;4.88;100.00;98565.56;2551345;56;20085;-73
2021/10/23 01:45:08;;;;;;;;;;;;;;;4.91;100.00;98561.78;2550520;56;20028;-73
2021/10/23 01:47:37;;;;;;;;;;;;;;;4.86;100.00;98563.03;2550545;56;20033;-73
2021/10/23 01:50:05;;;;;;;;;;;;;;;4.87;100.00;98572.62;2552068;56;19998;-73
2021/10/23 01:52:32;;;;;;;;;;;;;;;4.90;100.00;98566.25;2550986;56;20500;-72
2021/10/23 01:55:02;;;;;;;;;;;;;;;4.91;100.00;98570.56;2550206;56;19983;-73
2021/10/23 01:57:29;;;;;;;;;;;;;;;4.83;100.00;98571.25;2550858;56;19983;-73
2021/10/23 01:59:56;;;;;;;;;;;;;;;4.85;100.00;98577.22;2551876;56;19998;-73
2021/10/23 02:02:24;;;;;;;;;;;;;;;4.83;100.00;98584.44;2550079;56;20017;-73
2021/10/23 02:04:51;;;;;;;;;;;;;;;4.83;100.00;98579.16;2550535;56;20435;-73
2021/10/23 02:07:19;;;;;;;;;;;;;;;4.86;100.00;98592.09;2549396;56;20005;-73
2021/10/23 02:09:46;;;;;;;;;;;;;;;4.99;100.00;98586.62;2549879;56;20764;-73
2021/10/23 02:12:15;;;;;;;;;;;;;;;4.94;100.00;98591.44;2549448;56;20052;-73
2021/10/23 02:14:42;;;;;;;;;;;;;;;5.02;100.00;98598.75;2550620;56;19983;-73
2021/10/23 02:17:10;;;;;;;;;;;;;;;4.97;100.00;98598.28;2551166;56;19987;-73
2021/10/23 02:19:37;;;;;;;;;;;;;;;4.95;100.00;98600.22;2551729;56;20008;-73
2021/10/23 02:22:05;;;;;;;;;;;;;;;4.96;100.00;98609.81;2551500;56;19986;-73
2021/10/23 02:24:32;;;;;;;;;;;;;;;4.96;100.00;98615.97;2549222;56;20036;-74
2021/10/23 02:27:01;;;;;;;;;;;;;;;5.00;100.00;98619.16;2551103;56;20005;-74
2021/10/23 02:29:30;;;;;;;;;;;;;;;4.99;100.00;98617.47;2550065;56;20037;-73
2021/10/23 02:31:57;;;;;;;;;;;;;;;4.99;100.00;98633.34;2550512;56;19986;-73
2021/10/23 02:34:25;;;;;;;;;;;;;;;4.96;100.00;98633.59;2550683;56;20004;-73
2021/10/23 02:36:53;;;;;;;;;;;;;;;4.98;100.00;98634.31;2552332;56;19990;-74
2021/10/23 02:39:20;;;;;;;;;;;;;;;4.94;100.00;98636.37;2551164;56;20014;-73
2021/10/23 02:41:48;;;;;;;;;;;;;;;4.91;100.00;98635.78;2549937;56;19998;-73
2021/10/23 02:44:15;;;;;;;;;;;;;;;4.92;100.00;98642.78;2551262;56;19987;-73
2021/10/23 02:46:44;;;;;;;;;;;;;;;4.93;100.00;98644.44;2551078;56;20041;-73
2021/10/23 02:49:12;;;;;;;;;;;;;;;4.94;100.00;98656.69;2550252;56;20002;-73
2021/10/23 02:51:39;;;;;;;;;;;;;;;4.92;100.00;98654.16;2550825;56;20418;-74
2021/10/23 02:54:08;;;;;;;;;;;;;;;4.88;100.00;98658.87;2550863;56;20093;-73
2021/10/23 02:56:36;;;;;;;;;;;;;;;4.90;100.00;98663.19;2550616;56;20001;-73
2021/10/23 02:59:03;;;;;;;;;;;;;;;4.93;100.00;98665.59;2550984;56;19981;-74
2021/10/23 03:01:31;;;;;;;;;;;;;;;4.99;100.00;98667.69;2550433;56;20001;-73
2021/10/23 03:04:00;;;;;;;;;;;;;;;4.96;100.00;98665.31;2552379;56;20412;-73
2021/10/23 03:06:28;;;;;;;;;;;;;;;4.96;100.00;98670.59;2550994;56;19993;-73
2021/10/23 03:08:55;;;;;;;;;;;;;;;4.92;100.00;98669.19;2550154;56;19987;-74
2021/10/23 03:11:23;;;;;;;;;;;;;;;4.92;100.00;98679.78;2550945;56;20003;-73
2021/10/23 03:13:50;;;;;;;;;;;;;;;4.89;100.00;98675.56;2550538;56;20008;-73
2021/10/23 03:16:17;;;;;;;;;;;;;;;4.95;100.00;98675.03;2551394;56;20006;-73
2021/10/23 03:18:45;;;;;;;;;;;;;;;4.87;100.00;98683.63;2550741;56;20033;-73
2021/10/23 03:21:14;;;;;;;;;;;;;;;4.85;100.00;98696.13;2546819;56;19997;-73
2021/10/23 03:23:42;;;;;;;;;;;;;;;4.88;100.00;98701.16;2549019;56;19998;-73
2021/10/23 03:26:11;;;;;;;;;;;;;;;4.83;100.00;98692.78;2549993;56;19991;-73
2021/10/23 03:28:38;;;;;;;;;;;;;;;4.78;100.00;98700.25;2549983;56;20016;-74
2021/10/23 03:31:05;;;;;;;;;;;;;;;4.75;100.00;98711.06;2551438;56;19993;-73
2021/10/23 03:33:33;;;;;;;;;;;;;;;4.73;100.00;98715.66;2554950;56;20002;-72
2021/10/23 03:36:00;;;;;;;;;;;;;;;4.72;100.00;98706.06;2557889;56;20016;-73
2021/10/23 03:38:30;;;;;;;;;;;;;;;4.70;100.00;98719.38;2557680;56;20298;-73
2021/10/23 03:40:57;;;;;;;;;;;;;;;4.70;100.00;98713.25;2558210;56;19989;-73
2021/10/23 03:43:25;;;;;;;;;;;;;;;4.70;100.00;98721.16;2558503;56;20012;-72
2021/10/23 03:45:52;;;;;;;;;;;;;;;4.67;100.00;98724.06;2558417;56;19990;-72
2021/10/23 03:48:20;;;;;;;;;;;;;;;4.71;100.00;98725.50;2558391;56;19990;-72
2021/10/23 03:50:47;;;;;;;;;;;;;;;4.69;100.00;98738.00;2558748;56;19986;-72
2021/10/23 03:53:15;;;;;;;;;;;;;;;4.65;100.00;98736.59;2558292;56;19982;-74
2021/10/23 03:55:44;;;;;;;;;;;;;;;4.67;100.00;98739.94;2558646;56;20481;-73
2021/10/23 03:58:11;;;;;;;;;;;;;;;4.66;100.00;98743.53;2558475;56;20008;-73
2021/10/23 04:00:39;;;;;;;;;;;;;;;4.67;100.00;98755.78;2558470;56;20004;-72
2021/10/23 04:03:06;;;;;;;;;;;;;;;4.64;100.00;98756.03;2558461;56;20009;-74
2021/10/23 04:05:34;;;;;;;;;;;;;;;4.62;100.00;98755.34;2558517;56;20000;-75
2021/10/23 04:08:01;;;;;;;;;;;;;;;4.62;100.00;98763.25;2558296;56;20466;-73
2021/10/23 04:10:29;;;;;;;;;;;;;;;4.65;100.00;98763.00;2558432;56;20408;-73
2021/10/23 04:12:58;;;;;;;;;;;;;;;4.62;100.00;98777.28;2558321;56;20008;-72
2021/10/23 04:15:25;;;;;;;;;;;;;;;4.56;100.00;98765.41;2558171;56;19998;-72
2021/10/23 04:17:53;;;;;;;;;;;;;;;4.55;100.00;98774.31;2558427;56;20274;-72
2021/10/23 04:20:20;;;;;;;;;;;;;;;4.55;100.00;98779.59;2558398;56;19989;-73
2021/10/23 04:22:47;;;;;;;;;;;;;;;4.51;100.00;98788.75;2558373;56;20463;-72
2021/10/23 04:25:15;;;;;;;;;;;;;;;4.51;100.00;98783.47;2558377;56;20004;-74
2021/10/23 04:27:42;;;;;;;;;;;;;;;4.44;100.00;98787.53;2558433;56;20107;-72
2021/10/23 04:30:11;;;;;;;;;;;;;;;4.37;100.00;98792.50;2558390;56;20546;-72
2021/10/23 04:32:39;;;;;;;;;;;;;;;4.41;100.00;98793.06;2558277;56;19997;-73
2021/10/23 04:35:06;;;;;;;;;;;;;;;4.35;100.00;98804.94;2558469;56;19991;-73
2021/10/23 04:37:34;;;;;;;;;;;;;;;4.30;100.00;98801.84;2558321;56;19996;-72
2021/10/23 04:40:02;;;;;;;;;;;;;;;4.27;100.00;98810.03;2558290;56;19982;-73
2021/10/23 04:42:29;;;;;;;;;;;;;;;4.31;100.00;98820.22;2558278;56;19994;-72
2021/10/23 04:44:56;;;;;;;;;;;;;;;4.27;100.00;98816.12;2558141;56;19977;-72
2021/10/23 04:47:25;;;;;;;;;;;;;;;4.28;100.00;98820.44;2558293;56;20496;-73
2021/10/23 04:49:53;;;;;;;;;;;;;;;4.28;100.00;98825.72;2558376;56;20006;-73
2021/10/23 04:52:20;;;;;;;;;;;;;;;4.30;100.00;98829.06;2558184;56;19994;-74
2021/10/23 04:54:48;;;;;;;;;;;;;;;4.26;100.00;98838.22;2558272;56;20000;-73
2021/10/23 04:57:15;;;;;;;;;;;;;;;4.23;100.00;98833.19;2558318;56;20481;-73
2021/10/23 04:59:42;;;;;;;;;;;;;;;4.25;100.00;98844.47;2558385;56;19997;-74
2021/10/23 05:02:10;;;;;;;;;;;;;;;4.25;100.00;98851.53;2558174;56;20028;-74
2021/10/23 05:04:38;;;;;;;;;;;;;;;4.21;100.00;98858.88;2558205;56;20002;-73
2021/10/23 05:07:06;;;;;;;;;;;;;;;4.23;100.00;98866.66;2557995;56;20012;-72
2021/10/23 05:09:33;;;;;;;;;;;;;;;4.23;100.00;98869.28;2558239;56;19997;-72
2021/10/23 05:12:01;;;;;;;;;;;;;;;4.20;100.00;98865.09;2558178;56;19982;-73
2021/10/23 05:14:28;;;;;;;;;;;;;;;4.17;100.00;98866.19;2558334;56;19998;-72
2021/10/23 05:16:55;;;;;;;;;;;;;;;4.14;100.00;98873.50;2558217;56;19995;-73
2021/10/23 05:19:23;;;;;;;;;;;;;;;4.13;100.00;98874.47;2558371;56;19986;-73
2021/10/23 05:21:51;;;;;;;;;;;;;;;4.10;100.00;98877.31;2558151;56;20475;-73
2021/10/23 05:24:19;;;;;;;;;;;;;;;4.04;100.00;98884.78;2558147;56;20000;-73
2021/10/23 05:26:47;;;;;;;;;;;;;;;3.98;100.00;98893.16;2558132;56;20041;-73
2021/10/23 05:29:15;;;;;;;;;;;;;;;3.96;100.00;98896.84;2558234;56;19996;-73
2021/10/23 05:31:42;;;;;;;;;;;;;;;3.96;100.00;98895.06;2558193;56;20030;-73
2021/10/23 05:34:09;;;;;;;;;;;;;;;3.99;100.00;98900.09;2557931;56;20008;-74
2021/10/23 05:36:37;;;;;;;;;;;;;;;4.02;100.00;98899.91;2557543;56;20476;-73
2021/10/23 05:39:06;;;;;;;;;;;;;;;4.04;100.00;98912.94;2558227;56;20514;-73
2021/10/23 05:41:33;;;;;;;;;;;;;;;4.04;100.00;98913.81;2558194;56;19990;-72
2021/10/23 05:44:00;;;;;;;;;;;;;;;4.07;100.00;98917.16;2558172;56;20007;-72
2021/10/23 05:46:28;;;;;;;;;;;;;;;4.15;100.00;98926.16;2558222;56;20044;-72
2021/10/23 05:48:55;;;;;;;;;;;;;;;4.11;100.00;98924.72;2557949;56;19997;-73
2021/10/23 05:51:23;;;;;;;;;;;;;;;4.11;100.00;98927.37;2557413;56;20481;-72
2021/10/23 05:53:50;;;;;;;;;;;;;;;4.12;100.00;98941.41;2558046;56;20401;-69
2021/10/23 05:56:20;;;;;;;;;;;;;;;4.10;100.00;98948.59;2558168;56;19998;-73
2021/10/23 05:58:48;;;;;;;;;;;;;;;4.07;100.00;98949.69;2558064;56;20016;-72
2021/10/23 06:01:15;;;;;;;;;;;;;;;4.08;100.00;98958.44;2557877;56;19990;-72
2021/10/23 06:03:44;;;;;;;;;;;;;;;4.13;100.00;98961.56;2557833;56;20008;-72
2021/10/23 06:06:11;;;;;;;;;;;;;;;4.23;100.00;98961.69;2557949;56;20040;-72
2021/10/23 06:08:39;;;;;;;;;;;;;;;4.17;100.00;98965.66;2558037;56;19994;-72
2021/10/23 06:11:08;;;;;;;;;;;;;;;4.14;100.00;98965.88;2558101;56;19991;-72
2021/10/23 06:13:37;;;;;;;;;;;;;;;4.17;100.00;98970.94;2558090;56;20002;-72
2021/10/23 06:16:05;;;;;;;;;;;;;;;4.20;100.00;98981.25;2558104;56;20009;-72
2021/10/23 06:18:32;;;;;;;;;;;;;;;4.22;100.00;98984.63;2557905;56;20041;-72
2021/10/23 06:20:59;;;;;;;;;;;;;;;4.29;100.00;98990.28;2558045;56;19998;-72
2021/10/23 06:23:30;;;;;;;;;;;;;;;4.29;100.00;98999.03;2558073;56;20004;-72
2021/10/23 06:25:59;;;;;;;;;;;;;;;4.34;100.00;99003.94;2557778;56;20000;-72
2021/10/23 06:28:27;;;;;;;;;;;;;;;4.35;100.00;99000.34;2557872;56;20001;-73
2021/10/23 06:30:55;;;;;;;;;;;;;;;4.34;100.00;99005.75;2558157;56;19994;-72
2021/10/23 06:33:23;;;;;;;;;;;;;;;4.37;100.00;99002.87;2557848;56;19990;-73
2021/10/23 06:35:50;;;;;;;;;;;;;;;4.36;100.00;99015.25;2557177;56;20508;-72
2021/10/23 06:38:18;;;;;;;;;;;;;;;4.37;100.00;99016.09;2557978;56;20393;-73
2021/10/23 06:40:45;;;;;;;;;;;;;;;4.48;100.00;99024.03;2557295;56;19998;-73
2021/10/23 06:43:13;;;;;;;;;;;;;;;4.45;100.00;99029.53;2557914;56;20085;-72
2021/10/23 06:45:40;;;;;;;;;;;;;;;4.46;100.00;99033.87;2557939;56;19996;-72
2021/10/23 06:48:11;;;;;;;;;;;;;;;4.53;100.00;99035.09;2557906;56;19993;-72
2021/10/23 06:50:38;;;;;;;;;;;;;;;4.59;100.00;99042.53;2557836;56;20001;-73
2021/10/23 06:53:05;;;;;;;;;;;;;;;4.54;100.00;99047.34;2557821;56;20412;-72
2021/10/23 06:55:33;;;;;;;;;;;;;;;4.57;100.00;99055.00;2558142;56;20023;-72
2021/10/23 06:58:00;;;;;;;;;;;;;;;4.51;100.00;99054.66;2557876;56;19982;-72
2021/10/23 07:00:28;;;;;;;;;;;;;;;4.44;100.00;99064.84;2558013;56;20034;-72
2021/10/23 07:02:55;;;;;;;;;;;;;;;4.45;100.00;99069.16;2557782;56;20003;-73
2021/10/23 07:05:26;;;;;;;;;;;;;;;4.39;100.00;99069.63;2557180;56;20002;-73
2021/10/23 07:07:54;;;;;;;;;;;;;;;4.37;100.00;99077.69;2557761;56;20001;-73
2021/10/23 07:10:21;;;;;;;;;;;;;;;4.31;100.00;99078.97;2557810;56;19996;-73
2021/10/23 07:12:50;;;;;;;;;;;;;;;4.25;100.00;99083.84;2557853;56;20012;-73
2021/10/23 07:15:18;;;;;;;;;;;;;;;4.21;100.00;99096.47;2558105;56;19993;-73
2021/10/23 07:17:46;;;;;;;;;;;;;;;4.25;100.00;99094.41;2558363;56;20001;-73
2021/10/23 07:20:14;;;;;;;;;;;;;;;4.30;100.00;99105.50;2558625;56;20024;-73
2021/10/23 07:22:42;;;;;;;;;;;;;;;4.28;100.00;99108.25;2558700;56;20355;-73
2021/10/23 07:25:10;;;;;;;;;;;;;;;4.26;100.00;99118.06;2558822;56;19986;-73
2021/10/23 07:27:37;;;;;;;;;;;;;;;4.27;100.00;99125.03;2558553;56;20008;-73
2021/10/23 07:30:09;;;;;;;;;;;;;;;4.27;100.00;99125.03;2558712;56;20378;-73
2021/10/23 07:32:36;;;;;;;;;;;;;;;4.35;100.00;99137.66;2558386;56;20012;-73
2021/10/23 07:35:04;;;;;;;;;;;;;;;4.40;100.00;99129.41;2558676;56;19988;-74
2021/10/23 07:37:32;;;;;;;;;;;;;;;4.46;100.00;99142.16;2558471;56;19994;-73
2021/10/23 07:40:01;;;;;;;;;;;;;;;4.48;100.00;99148.16;2558533;56;20005;-73
2021/10/23 07:42:28;;;;;;;;;;;;;;;4.51;100.00;99152.38;2558368;56;20412;-73
2021/10/23 07:44:57;;;;;;;;;;;;;;;4.56;100.00;99150.22;2558836;56;20008;-73
2021/10/23 07:47:25;;;;;;;;;;;;;;;4.59;100.00;99165.84;2558524;56;19998;-73
2021/10/23 07:49:53;;;;;;;;;;;;;;;4.62;100.00;99164.78;2558341;56;20001;-72
2021/10/23 07:52:20;;;;;;;;;;;;;;;4.72;100.00;99168.41;2558430;56;19996;-72
2021/10/23 07:54:48;;;;;;;;;;;;;;;4.74;100.00;99164.69;2558478;56;20524;-72
2021/10/23 07:57:17;;;;;;;;;;;;;;;4.76;100.00;99175.16;2558524;56;20436;-72
2021/10/23 07:59:44;;;;;;;;;;;;;;;4.79;100.00;99182.00;2557719;56;20010;-71
2021/10/23 08:02:12;;;;;;;;;;;;;;;4.83;100.00;99186.09;2553698;56;20017;-72
2021/10/23 08:04:40;;;;;;;;;;;;;;;4.84;100.00;99196.56;2552399;56;19997;-72
2021/10/23 08:07:07;;;;;;;;;;;;;;;4.92;100.00;99195.13;2553124;56;20002;-72
2021/10/23 08:09:36;;;;;;;;;;;;;;;5.06;100.00;99197.56;2552773;56;19995;-72
2021/10/23 08:12:04;;;;;;;;;;;;;;;5.12;100.00;99199.75;2553282;56;19994;-72
2021/10/23 08:14:34;;;;;;;;;;;;;;;5.26;100.00;99211.91;2553551;56;20016;-72
2021/10/23 08:17:01;;;;;;;;;;;;;;;5.42;100.00;99216.00;2553246;56;19997;-72
2021/10/23 08:19:29;;;;;;;;;;;;;;;5.46;100.00;99228.03;2553453;56;19990;-72
2021/10/23 08:21:56;;;;;;;;;;;;;;;5.48;100.00;99230.53;2552918;56;20005;-72
2021/10/23 08:24:24;;;;;;;;;;;;;;;5.48;100.00;99241.13;2553005;56;20416;-72
2021/10/23 08:26:51;;;;;;;;;;;;;;;5.33;100.00;99241.38;2552700;56;19982;-72
2021/10/23 08:29:18;;;;;;;;;;;;;;;5.25;100.00;99238.47;2552717;56;20035;-72
2021/10/23 08:31:48;;;;;;;;;;;;;;;5.29;100.00;99247.84;2552865;56;20517;-72
2021/10/23 08:34:15;;;;;;;;;;;;;;;5.20;100.00;99265.25;2552655;56;20401;-72
2021/10/23 08:36:43;;;;;;;;;;;;;;;5.07;100.00;99265.34;2553061;56;20018;-72
2021/10/23 08:39:10;;;;;;;;;;;;;;;4.85;100.00;99272.25;2552475;56;19986;-72
2021/10/23 08:41:38;;;;;;;;;;;;;;;4.72;100.00;99284.69;2552775;56;19990;-72
2021/10/23 08:44:06;;;;;;;;;;;;;;;4.50;100.00;99282.75;2551110;56;20004;-72
2021/10/23 08:46:35;;;;;;;;;;;;;;;4.45;100.00;99288.38;2551748;56;19979;-72
2021/10/23 08:49:08;;;;;;;;;;;;;;;4.38;100.00;99300.31;2551509;56;20410;-72
2021/10/23 08:51:36;;;;;;;;;;;;;;;4.33;100.00;99300.66;2551862;56;20004;-72
2021/10/23 08:54:03;;;;;;;;;;;;;;;4.36;100.00;99307.53;2551893;56;20012;-72
2021/10/23 08:56:31;;;;;;;;;;;;;;;4.39;100.00;99307.28;2552476;56;20049;-73
2021/10/23 08:58:58;;;;;;;;;;;;;;;4.49;100.00;99318.88;2550581;56;20043;-73
2021/10/23 09:01:26;;;;;;;;;;;;;;;4.60;100.00;99324.22;2551845;56;19999;-72
2021/10/23 09:03:54;;;;;;;;;;;;;;;4.66;100.00;99319.47;2551972;56;19991;-73
2021/10/23 09:06:32;;;;;;;;;;;;;;;4.73;100.00;99328.66;2552526;56;20005;-73
2021/10/23 09:09:02;;;;;;;;;;;;;;;4.86;100.00;99341.78;2551895;56;20755;-71
2021/10/23 09:11:31;;;;;;;;;;;;;;;4.91;100.00;99339.66;2551585;56;20013;-72
2021/10/23 09:14:19;;;;;;;;;;;;;;;5.06;100.00;99347.41;2550288;56;19979;-72
2021/10/23 09:16:47;;;;;;;;;;;;;;;5.08;100.00;99356.09;2551435;56;19982;-72
2021/10/23 09:19:14;;;;;;;;;;;;;;;5.10;100.00;99355.00;2550873;56;19987;-72
2021/10/23 09:21:45;;;;;;;;;;;;;;;5.13;100.00;99351.28;2552046;56;20033;-72
2021/10/23 09:24:23;;;;;;;;;;;;;;;5.19;100.00;99369.34;2551956;56;19983;-72
2021/10/23 09:26:51;;;;;;;;;;;;;;;5.24;100.00;99374.28;2552575;56;20009;-72
2021/10/23 09:29:20;;;;;;;;;;;;;;;5.27;100.00;99371.41;2551567;56;20001;-72
2021/10/23 09:31:47;;;;;;;;;;;;;;;5.26;100.00;99380.31;2550062;56;20583;-72
2021/10/23 09:34:16;;;;;;;;;;;;;;;5.27;100.00;99388.12;2551763;56;19990;-72
2021/10/23 09:36:46;;;;;;;;;;;;;;;5.26;100.00;99386.44;2551637;56;20002;-69
2021/10/23 09:39:22;;;;;;;;;;;;;;;5.27;100.00;99390.78;2551309;56;20010;-70
2021/10/23 09:42:03;;;;;;;;;;;;;;;5.22;100.00;99397.38;2551136;56;20013;-67
2021/10/23 09:44:31;;;;;;;;;;;;;;;5.20;100.00;99404.56;2548943;56;19998;-73
2021/10/23 09:46:59;;;;;;;;;;;;;;;5.16;100.00;99406.56;2548834;56;20010;-72
2021/10/23 09:49:26;;;;;;;;;;;;;;;5.12;100.00;99415.69;2549738;56;20057;-71
2021/10/23 09:52:04;;;;;;;;;;;;;;;5.11;100.00;99428.09;2549714;56;19991;-70
2021/10/23 09:54:32;;;;;;;;;;;;;;;5.05;100.00;99425.88;2549703;56;20006;-71
2021/10/23 09:56:59;;;;;;;;;;;;;;;5.03;100.00;99426.94;2549864;56;20002;-71
2021/10/23 09:59:27;;;;;;;;;;;;;;;5.00;100.00;99428.00;2547050;56;20037;-71
2021/10/23 10:01:57;;;;;;;;;;;;;;;4.93;100.00;99430.25;2548735;56;20017;-71
2021/10/23 10:04:25;;;;;;;;;;;;;;;4.94;100.00;99439.88;2547588;56;20005;-71
2021/10/23 10:06:53;;;;;;;;;;;;;;;5.02;100.00;99439.34;2549253;56;20049;-70
2021/10/23 10:09:23;;;;;;;;;;;;;;;5.11;100.00;99443.97;2548821;56;20016;-71
2021/10/23 10:11:51;;;;;;;;;;;;;;;5.17;100.00;99445.31;2549387;56;19994;-71
2021/10/23 10:14:20;;;;;;;;;;;;;;;5.26;100.00;99457.00;2548944;56;19998;-71
2021/10/23 10:16:47;;;;;;;;;;;;;;;5.34;100.00;99459.94;2548832;56;20006;-71
2021/10/23 10:19:16;;;;;;;;;;;;;;;5.49;100.00;99465.03;2549185;56;20038;-71
2021/10/23 10:21:43;;;;;;;;;;;;;;;5.50;100.00;99466.72;2548241;56;20013;-71
2021/10/23 10:24:14;;;;;;;;;;;;;;;5.58;100.00;99469.66;2548270;56;20018;-71
2021/10/23 10:26:55;;;;;;;;;;;;;;;5.68;100.00;99475.94;2548839;56;19999;-71
2021/10/23 10:29:26;;;;;;;;;;;;;;;5.72;100.00;99471.28;2548319;56;19986;-71
2021/10/23 10:31:57;;;;;;;;;;;;;;;5.79;100.00;99487.53;2548755;56;19998;-71
2021/10/23 10:34:47;;;;;;;;;;;;;;;5.76;100.00;99485.13;2549524;56;19998;-71
2021/10/23 10:37:46;;;;;;;;;;;;;;;5.69;100.00;99482.91;2548160;56;20409;-71
2021/10/23 10:40:33;;;;;;;;;;;;;;;5.69;100.00;99498.81;2548488;56;20459;-70
2021/10/23 10:43:03;;;;;;;;;;;;;;;5.60;100.00;99499.47;2548784;56;20022;-71
2021/10/23 10:45:33;;;;;;;;;;;;;;;5.60;100.00;99511.88;2549058;56;20005;-71
2021/10/23 10:48:14;;;;;;;;;;;;;;;5.61;100.00;99517.06;2549464;56;20028;-70
2021/10/23 10:50:42;;;;;;;;;;;;;;;5.62;100.00;99524.06;2548504;56;20044;-69
2021/10/23 10:53:14;;;;;;;;;;;;;;;5.62;100.00;99524.06;2549572;56;20444;-70
2021/10/23 10:55:41;;;;;;;;;;;;;;;5.58;100.00;99533.16;2549415;56;19999;-70
2021/10/23 10:58:11;;;;;;;;;;;;;;;5.57;100.00;99542.06;2548572;56;20002;-69
2021/10/23 11:01:05;;;;;;;;;;;;;;;5.61;100.00;99554.13;2549223;56;19987;-70
2021/10/23 11:03:35;;;;;;;;;;;;;;;5.61;100.00;99553.25;2549514;56;20020;-70
2021/10/23 11:06:17;;;;;;;;;;;;;;;5.50;100.00;99562.81;2548368;56;19995;-70
2021/10/23 11:08:45;;;;;;;;;;;;;;;5.42;100.00;99560.75;2549122;56;19997;-70
2021/10/23 11:11:12;;;;;;;;;;;;;;;5.34;100.00;99568.38;2549541;56;20029;-70
2021/10/23 11:13:44;;;;;;;;;;;;;;;5.27;100.00;99575.06;2548987;56;19991;-70
2021/10/23 11:16:25;;;;;;;;;;;;;;;5.19;100.00;99585.31;2549060;56;20014;-69
2021/10/23 11:18:56;;;;;;;;;;;;;;;5.10;100.00;99585.03;2548376;56;20006;-70
2021/10/23 11:21:24;;;;;;;;;;;;;;;5.06;100.00;99596.78;2548094;56;20089;-68
2021/10/23 11:23:52;;;;;;;;;;;;;;;5.03;100.00;99598.78;2548365;56;20533;-69
2021/10/23 11:26:19;;;;;;;;;;;;;;;5.06;100.00;99599.41;2548609;56;19997;-70
2021/10/23 11:28:48;;;;;;;;;;;;;;;5.01;100.00;99609.47;2547438;56;19998;-70
2021/10/23 11:31:19;;;;;;;;;;;;;;;5.00;100.00;99610.41;2546253;56;19998;-69
2021/10/23 11:33:47;;;;;;;;;;;;;;;4.93;100.00;99625.03;2547116;56;19994;-70
2021/10/23 11:36:14;;;;;;;;;;;;;;;4.91;100.00;99621.63;2548736;56;20032;-70
2021/10/23 11:38:42;;;;;;;;;;;;;;;4.91;100.00;99637.47;2547768;56;20010;-70
2021/10/23 11:41:10;;;;;;;;;;;;;;;4.87;100.00;99642.16;2548876;56;19999;-71
2021/10/23 11:43:39;;;;;;;;;;;;;;;4.86;100.00;99653.66;2549076;56;19998;-70
2021/10/23 11:46:12;;;;;;;;;;;;;;;4.81;100.00;99651.34;2549311;56;20036;-70
2021/10/23 11:48:40;;;;;;;;;;;;;;;4.80;100.00;99659.38;2549226;56;20017;-69
2021/10/23 11:51:07;;;;;;;;;;;;;;;4.64;100.00;99665.69;2548346;56;20539;-68
2021/10/23 11:53:35;;;;;;;;;;;;;;;4.67;100.00;99670.78;2548120;56;20493;-70
2021/10/23 11:56:07;;;;;;;;;;;;;;;4.67;100.00;99677.84;2548676;56;20468;-70
2021/10/23 11:58:35;;;;;;;;;;;;;;;4.49;100.00;99686.06;2548739;56;20525;-70
2021/10/23 12:01:04;;;;;;;;;;;;;;;4.36;100.00;99687.81;2549090;56;20416;-70
2021/10/23 12:03:35;;;;;;;;;;;;;;;4.39;100.00;99683.19;2548988;56;19998;-69
2021/10/23 12:06:12;;;;;;;;;;;;;;;4.34;100.00;99697.63;2549594;56;19986;-69
2021/10/23 12:08:40;;;;;;;;;;;;;;;4.43;100.00;99699.69;2547586;56;20489;-68
2021/10/23 12:11:13;;;;;;;;;;;;;;;4.36;100.00;99703.66;2549644;56;20027;-69
2021/10/23 12:13:49;;;;;;;;;;;;;;;4.31;100.00;99703.97;2549386;56;20156;-68
2021/10/23 12:16:17;;;;;;;;;;;;;;;4.29;100.00;99714.62;2549790;56;20650;-68
2021/10/23 12:18:47;;;;;;;;;;;;;;;4.23;100.00;99720.31;2549046;56;20002;-68
2021/10/23 12:21:15;;;;;;;;;;;;;;;4.20;100.00;99724.94;2548275;56;20500;-70
2021/10/23 12:23:44;;;;;;;;;;;;;;;4.19;100.00;99729.34;2549379;56;20003;-69
2021/10/23 12:26:11;;;;;;;;;;;;;;;4.11;100.00;99732.50;2549774;56;19991;-71
2021/10/23 12:28:58;;;;;;;;;;;;;;;4.10;100.00;99735.22;2549020;56;19994;-70
2021/10/23 12:31:28;;;;;;;;;;;;;;;4.07;100.00;99746.84;2549307;56;19995;-70
2021/10/23 12:34:00;;;;;;;;;;;;;;;3.96;100.00;99759.84;2549641;56;19998;-70
2021/10/23 12:36:31;;;;;;;;;;;;;;;3.84;100.00;99761.50;2549682;56;19990;-71
2021/10/23 12:39:13;;;;;;;;;;;;;;;3.75;100.00;99774.31;2549206;56;19990;-70
2021/10/23 12:41:41;;;;;;;;;;;;;;;3.74;100.00;99780.53;2549871;56;20024;-70
2021/10/23 12:44:08;;;;;;;;;;;;;;;3.77;100.00;99774.22;2548702;56;20002;-68
2021/10/23 12:46:35;;;;;;;;;;;;;;;3.68;100.00;99788.81;2549369;56;20005;-70
2021/10/23 12:49:04;;;;;;;;;;;;;;;3.71;100.00;99798.34;2549494;56;19991;-71
2021/10/23 12:51:32;;;;;;;;;;;;;;;3.70;100.00;99800.12;2549787;56;19998;-71
2021/10/23 12:53:59;;;;;;;;;;;;;;;3.68;100.00;99807.28;2549889;56;20012;-71
2021/10/23 12:56:27;;;;;;;;;;;;;;;3.65;100.00;99810.13;2549427;56;20011;-69